createdAt,value
2022-10-13T00:01:18.019Z,95223.16
2022-10-13T00:03:48.718Z,95241.28
2022-10-13T00:06:22.962Z,95261.78
2022-10-13T00:08:49.892Z,95267.75
2022-10-13T00:11:20.331Z,95275.84
2022-10-13T00:13:48.576Z,95262.81
2022-10-13T00:16:18.377Z,95269.06
2022-10-13T00:18:46.111Z,95245.09
2022-10-13T00:21:16.102Z,95231.91
2022-10-13T00:23:42.867Z,95229.34
2022-10-13T00:26:12.282Z,95234.16
2022-10-13T00:28:40.219Z,95237.03
2022-10-13T00:31:28.239Z,95246.88
2022-10-13T00:33:55.777Z,95253.41
2022-10-13T00:36:24.018Z,95220.22
2022-10-13T00:38:51.950Z,95216.84
2022-10-13T00:41:18.950Z,95223.19
2022-10-13T00:44:04.104Z,95200.78
2022-10-13T00:46:40.119Z,95209.50
2022-10-13T00:49:09.848Z,95197.59
2022-10-13T00:51:47.463Z,95186.38
2022-10-13T00:54:24.816Z,95206.34
2022-10-13T00:56:52.806Z,95221.38
2022-10-13T00:59:27.001Z,95210.75
2022-10-13T01:01:54.306Z,95210.78
2022-10-13T01:04:25.632Z,95215.69
2022-10-13T01:06:52.954Z,95206.38
2022-10-13T01:09:19.607Z,95204.19
2022-10-13T01:11:49.386Z,95219.41
2022-10-13T01:14:33.739Z,95217.59
2022-10-13T01:17:12.985Z,95223.91
2022-10-13T01:20:05.840Z,95213.41
2022-10-13T01:22:51.816Z,95207.69
2022-10-13T01:25:24.406Z,95203.34
2022-10-13T01:28:37.123Z,95218.47
2022-10-13T01:31:20.197Z,95228.66
2022-10-13T01:34:01.945Z,95217.94
2022-10-13T01:36:46.759Z,95225.75
2022-10-13T01:39:19.099Z,95230.38
2022-10-13T01:41:54.168Z,95227.75
2022-10-13T01:44:32.915Z,95224.78
2022-10-13T01:47:01.890Z,95233.81
2022-10-13T01:49:33.444Z,95221.31
2022-10-13T01:52:08.346Z,95217.38
2022-10-13T01:54:35.190Z,95213.94
2022-10-13T01:57:02.640Z,95227.50
2022-10-13T01:59:34.110Z,95227.44
2022-10-13T02:02:15.923Z,95230.91
2022-10-13T02:05:03.517Z,95227.50
2022-10-13T02:07:39.242Z,95228.91
2022-10-13T02:10:09.701Z,95227.00
2022-10-13T02:12:42.372Z,95232.97
2022-10-13T02:15:14.226Z,95236.53
2022-10-13T02:17:41.965Z,95245.78
2022-10-13T02:20:09.815Z,95234.16
2022-10-13T02:22:43.880Z,95244.31
2022-10-13T02:25:10.862Z,95242.72
2022-10-13T02:27:37.619Z,95237.44
2022-10-13T02:30:05.449Z,95224.75
2022-10-13T02:32:32.365Z,95231.41
2022-10-13T02:34:59.078Z,95228.56
2022-10-13T02:37:26.117Z,95224.41
2022-10-13T02:39:52.880Z,95232.16
2022-10-13T02:42:19.929Z,95228.22
2022-10-13T02:44:47.438Z,95228.22
2022-10-13T02:47:14.194Z,95222.09
2022-10-13T02:49:40.855Z,95215.50
2022-10-13T02:52:08.547Z,95222.91
2022-10-13T02:54:37.646Z,95220.22
2022-10-13T02:57:04.346Z,95223.63
2022-10-13T02:59:31.158Z,95202.59
2022-10-13T03:01:57.909Z,95204.53
2022-10-13T03:04:26.114Z,95206.47
2022-10-13T03:06:53.730Z,95219.06
2022-10-13T03:09:20.430Z,95212.34
2022-10-13T03:11:47.781Z,95226.13
2022-10-13T03:14:14.519Z,95223.47
2022-10-13T03:16:41.249Z,95222.69
2022-10-13T03:19:09.962Z,95230.47
2022-10-13T03:21:38.529Z,95234.41
2022-10-13T03:24:05.694Z,95212.09
2022-10-13T03:26:33.949Z,95208.16
2022-10-13T03:29:01.403Z,95215.16
2022-10-13T03:31:28.474Z,95217.41
2022-10-13T03:34:01.861Z,95220.91
2022-10-13T03:36:28.544Z,95222.59
2022-10-13T03:38:55.325Z,95221.78
2022-10-13T03:41:22.595Z,95236.78
2022-10-13T03:43:51.958Z,95211.56
2022-10-13T03:46:19.363Z,95223.59
2022-10-13T03:48:48.217Z,95219.75
2022-10-13T03:51:18.198Z,95184.66
2022-10-13T03:53:46.488Z,95183.59
2022-10-13T03:56:18.306Z,95200.06
2022-10-13T03:58:55.392Z,95213.56
2022-10-13T04:01:24.151Z,95203.78
2022-10-13T04:03:54.037Z,95208.94
2022-10-13T04:06:20.762Z,95224.63
2022-10-13T04:08:48.511Z,95226.41
2022-10-13T04:11:16.982Z,95238.34
2022-10-13T04:13:44.952Z,95236.22
2022-10-13T04:16:23.665Z,95209.94
2022-10-13T04:18:55.026Z,95221.56
2022-10-13T04:21:22.687Z,95215.50
2022-10-13T04:23:50.383Z,95222.03
2022-10-13T04:26:20.426Z,95219.66
2022-10-13T04:28:49.516Z,95192.13
2022-10-13T04:31:17.034Z,95196.50
2022-10-13T04:33:45.181Z,95206.47
2022-10-13T04:36:13.994Z,95216.69
2022-10-13T04:38:41.818Z,95222.16
2022-10-13T04:41:09.811Z,95221.13
2022-10-13T04:43:36.585Z,95212.06
2022-10-13T04:46:07.430Z,95206.03
2022-10-13T04:48:34.752Z,95200.41
2022-10-13T04:51:08.178Z,95200.91
2022-10-13T04:53:35.935Z,95196.34
2022-10-13T04:56:08.578Z,95188.34
2022-10-13T04:58:36.262Z,95194.53
2022-10-13T05:01:04.931Z,95184.03
2022-10-13T05:03:32.430Z,95152.41
2022-10-13T05:05:59.251Z,95165.22
2022-10-13T05:08:26.115Z,95177.44
2022-10-13T05:11:02.667Z,95166.13
2022-10-13T05:13:30.471Z,95194.34
2022-10-13T05:15:57.923Z,95183.63
2022-10-13T05:18:24.786Z,95171.47
2022-10-13T05:20:51.599Z,95188.25
2022-10-13T05:23:19.031Z,95188.84
2022-10-13T05:25:45.783Z,95193.53
2022-10-13T05:28:14.630Z,95185.13
2022-10-13T05:30:41.378Z,95186.75
2022-10-13T05:33:09.279Z,95184.38
2022-10-13T05:35:36.073Z,95178.81
2022-10-13T05:38:02.794Z,95183.31
2022-10-13T05:40:29.858Z,95179.47
2022-10-13T05:43:00.521Z,95201.41
2022-10-13T05:45:29.593Z,95202.50
2022-10-13T05:47:56.329Z,95199.25
2022-10-13T05:50:23.105Z,95203.41
2022-10-13T05:52:51.514Z,95189.66
2022-10-13T05:55:19.242Z,95179.13
2022-10-13T05:57:50.378Z,95189.34
2022-10-13T06:00:19.422Z,95205.19
2022-10-13T06:03:03.397Z,95192.50
2022-10-13T06:05:32.989Z,95207.44
2022-10-13T06:08:00.290Z,95212.38
2022-10-13T06:10:27.253Z,95198.09
2022-10-13T06:12:53.940Z,95170.22
2022-10-13T06:15:24.435Z,95199.88
2022-10-13T06:17:56.067Z,95225.50
2022-10-13T06:20:23.923Z,95212.28
2022-10-13T06:22:57.186Z,95196.75
2022-10-13T06:25:23.987Z,95186.91
2022-10-13T06:27:51.997Z,95185.94
2022-10-13T06:30:20.238Z,95184.25
2022-10-13T06:32:47.239Z,95184.31
2022-10-13T06:35:14.658Z,95188.13
2022-10-13T06:37:41.438Z,95194.19
2022-10-13T06:40:10.591Z,95199.97
2022-10-13T06:42:37.357Z,95198.25
2022-10-13T06:45:10.530Z,95187.22
2022-10-13T06:47:40.438Z,95200.31
2022-10-13T06:50:07.522Z,95204.88
2022-10-13T06:52:34.867Z,95207.25
2022-10-13T06:55:01.650Z,95213.69
2022-10-13T06:57:29.269Z,95188.22
2022-10-13T06:59:57.661Z,95186.63
2022-10-13T07:02:24.326Z,95203.53
2022-10-13T07:04:51.275Z,95183.72
2022-10-13T07:07:18.482Z,95174.97
2022-10-13T07:09:46.222Z,95185.28
2022-10-13T07:12:14.233Z,95193.78
2022-10-13T07:14:43.699Z,95191.06
2022-10-13T07:17:11.223Z,95168.25
2022-10-13T07:19:37.970Z,95188.63
2022-10-13T07:22:05.222Z,95186.44
2022-10-13T07:24:32.022Z,95182.00
2022-10-13T07:27:01.740Z,95164.00
2022-10-13T07:29:30.713Z,95162.97
2022-10-13T07:31:57.404Z,95174.31
2022-10-13T07:34:24.313Z,95158.31
2022-10-13T07:36:51.546Z,95158.72
2022-10-13T07:39:18.423Z,95170.59
2022-10-13T07:41:48.795Z,95159.84
2022-10-13T07:44:17.771Z,95138.63
2022-10-13T07:46:44.553Z,95131.78
2022-10-13T07:49:15.249Z,95165.41
2022-10-13T07:51:44.456Z,95128.41
2022-10-13T07:54:11.326Z,95131.97
2022-10-13T07:56:39.450Z,95150.31
2022-10-13T07:59:07.147Z,95116.66
2022-10-13T08:01:34.087Z,95159.19
2022-10-13T08:04:00.913Z,95145.06
2022-10-13T08:06:27.623Z,95149.41
2022-10-13T08:08:58.190Z,95135.38
2022-10-13T08:11:24.926Z,95127.13
2022-10-13T08:13:52.825Z,95131.31
2022-10-13T08:16:22.968Z,95128.31
2022-10-13T08:18:50.846Z,95135.75
2022-10-13T08:24:09.683Z,95135.00
2022-10-13T08:26:36.834Z,95151.78
2022-10-13T08:29:31.952Z,95119.59
2022-10-13T08:31:53.281Z,95101.81
2022-10-13T08:34:22.102Z,95144.53
2022-10-13T08:36:52.808Z,95118.09
2022-10-13T08:39:20.826Z,95141.19
2022-10-13T08:41:48.237Z,95124.94
2022-10-13T08:47:46.931Z,95125.16
2022-10-13T08:50:17.902Z,95138.09
2022-10-13T08:52:58.633Z,95168.34
2022-10-13T08:55:44.841Z,95124.75
2022-10-13T08:58:17.259Z,95159.44
2022-10-13T09:00:44.013Z,95154.13
2022-10-13T09:03:24.822Z,95161.94
2022-10-13T09:06:17.822Z,95137.66
2022-10-13T09:08:56.854Z,95163.47
2022-10-13T09:11:27.659Z,95102.53
2022-10-13T09:13:56.041Z,95148.25
2022-10-13T09:16:36.297Z,95124.00
2022-10-13T09:19:27.342Z,95154.47
2022-10-13T09:21:55.905Z,95145.13
2022-10-13T09:24:25.026Z,95140.81
2022-10-13T09:27:11.683Z,95151.63
2022-10-13T09:29:40.022Z,95142.72
2022-10-13T09:32:21.882Z,95146.31
2022-10-13T09:34:50.271Z,95143.84
2022-10-13T09:37:23.157Z,95174.44
2022-10-13T09:40:19.993Z,95143.84
2022-10-13T09:42:53.420Z,95161.00
2022-10-13T09:45:23.250Z,95146.50
2022-10-13T09:48:07.627Z,95158.41
2022-10-13T09:50:36.581Z,95113.84
2022-10-13T09:53:32.734Z,95147.28
2022-10-13T09:56:13.826Z,95130.78
2022-10-13T09:58:47.057Z,95137.91
2022-10-13T10:01:32.502Z,95137.25
2022-10-13T10:04:13.096Z,95150.44
2022-10-13T10:06:41.058Z,95136.31
2022-10-13T10:09:36.726Z,95130.66
2022-10-13T10:12:05.349Z,95174.00
2022-10-13T10:14:37.160Z,95152.59
2022-10-13T10:17:12.940Z,95126.75
2022-10-13T10:19:47.502Z,95164.88
2022-10-13T10:22:32.458Z,95162.38
2022-10-13T10:25:22.027Z,95141.13
2022-10-13T10:28:13.626Z,95138.34
2022-10-13T10:30:52.004Z,95136.88
2022-10-13T10:33:23.691Z,95161.16
2022-10-13T10:36:07.103Z,95158.25
2022-10-13T10:38:44.314Z,95147.47
2022-10-13T10:41:32.817Z,95145.06
2022-10-13T10:44:11.142Z,95145.25
2022-10-13T10:46:48.289Z,95125.66
2022-10-13T10:49:31.145Z,95138.81
2022-10-13T10:52:02.929Z,95128.75
2022-10-13T10:54:54.071Z,95116.84
2022-10-13T10:57:43.947Z,95127.88
2022-10-13T11:00:18.953Z,95118.38
2022-10-13T11:02:57.761Z,95126.16
2022-10-13T11:05:24.911Z,95097.88
2022-10-13T11:07:52.402Z,95096.69
2022-10-13T11:10:22.597Z,95099.19
2022-10-13T11:12:52.539Z,95102.72
2022-10-13T11:15:46.978Z,95104.38
2022-10-13T11:19:08.415Z,95089.47
2022-10-13T11:21:53.721Z,95056.22
2022-10-13T11:24:42.287Z,95069.56
2022-10-13T11:27:17.129Z,95079.47
2022-10-13T11:29:54.734Z,95098.25
2022-10-13T11:32:27.604Z,95064.47
2022-10-13T11:35:07.689Z,95053.94
2022-10-13T11:38:13.874Z,95032.66
2022-10-13T11:41:24.706Z,95054.47
2022-10-13T11:44:04.942Z,95057.47
2022-10-13T11:46:55.831Z,95050.38
2022-10-13T11:49:28.542Z,95061.31
2022-10-13T11:52:02.153Z,95065.75
2022-10-13T11:54:39.047Z,95045.22
2022-10-13T11:57:21.604Z,95059.59
2022-10-13T11:59:51.549Z,95059.63
2022-10-13T12:02:26.577Z,95050.06
2022-10-13T12:05:23.240Z,95045.88
2022-10-13T12:07:52.956Z,95032.84
2022-10-13T12:10:25.235Z,95009.22
2022-10-13T12:12:53.840Z,95028.06
2022-10-13T12:15:47.052Z,95026.75
2022-10-13T12:18:27.536Z,95020.50
2022-10-13T12:20:57.201Z,95020.47
2022-10-13T12:23:28.446Z,95033.41
2022-10-13T12:25:58.781Z,95004.78
2022-10-13T12:28:56.067Z,95019.06
2022-10-13T12:31:26.050Z,95010.34
2022-10-13T12:34:02.845Z,95037.81
2022-10-13T12:36:31.397Z,95028.53
2022-10-13T12:39:10.615Z,95028.59
2022-10-13T12:41:42.876Z,95022.25
2022-10-13T12:44:20.700Z,95009.22
2022-10-13T12:46:58.744Z,95005.09
2022-10-13T12:49:31.575Z,95008.25
2022-10-13T12:52:03.977Z,95015.59
2022-10-13T12:54:33.847Z,94998.22
2022-10-13T12:57:05.968Z,94988.53
2022-10-13T12:59:34.581Z,94989.78
2022-10-13T13:02:04.301Z,94980.81
2022-10-13T13:04:41.195Z,94970.13
2022-10-13T13:07:28.416Z,94974.69
2022-10-13T13:10:08.442Z,94983.69
2022-10-13T13:12:37.099Z,94993.47
2022-10-13T13:15:25.170Z,94989.75
2022-10-13T13:17:58.946Z,94990.44
2022-10-13T13:20:29.886Z,94989.94
2022-10-13T13:22:56.766Z,94991.13
2022-10-13T13:25:23.864Z,94998.06
2022-10-13T13:27:51.046Z,94979.34
2022-10-13T13:30:21.351Z,94994.38
2022-10-13T13:32:49.178Z,94968.97
2022-10-13T13:35:16.167Z,94978.06
2022-10-13T13:37:49.839Z,94978.03
2022-10-13T13:40:19.831Z,94974.06
2022-10-13T13:42:47.769Z,94948.53
2022-10-13T13:45:20.459Z,94953.59
2022-10-13T13:47:47.699Z,94969.03
2022-10-13T13:50:24.276Z,94941.28
2022-10-13T13:52:57.387Z,94955.75
2022-10-13T13:55:25.023Z,94940.53
2022-10-13T13:57:51.963Z,94938.69
2022-10-13T14:00:19.502Z,94934.59
2022-10-13T14:02:49.922Z,94948.16
2022-10-13T14:05:17.183Z,94940.06
2022-10-13T14:07:43.997Z,94940.66
2022-10-13T14:10:11.272Z,94941.41
2022-10-13T14:12:38.121Z,94942.34
2022-10-13T14:15:05.666Z,94939.63
2022-10-13T14:17:32.432Z,94934.56
2022-10-13T14:20:00.289Z,94886.69
2022-10-13T14:22:27.218Z,94910.94
2022-10-13T14:24:54.675Z,94929.72
2022-10-13T14:27:21.439Z,94939.91
2022-10-13T14:29:48.414Z,94942.00
2022-10-13T14:32:16.032Z,94937.88
2022-10-13T14:34:42.776Z,94963.94
2022-10-13T14:37:09.513Z,94952.66
2022-10-13T14:39:36.221Z,94936.09
2022-10-13T14:42:03.176Z,94930.63
2022-10-13T14:44:29.912Z,94934.63
2022-10-13T14:46:56.793Z,94931.25
2022-10-13T14:49:24.751Z,94899.88
2022-10-13T14:51:51.406Z,94900.19
2022-10-13T14:54:18.190Z,94909.22
2022-10-13T14:56:45.003Z,94908.25
2022-10-13T14:59:12.162Z,94904.25
2022-10-13T15:01:41.621Z,94925.75
2022-10-13T15:04:10.652Z,94923.91
2022-10-13T15:06:40.010Z,94927.94
2022-10-13T15:11:36.821Z,94914.47
2022-10-13T15:14:03.615Z,94915.84
2022-10-13T15:16:33.386Z,94914.16
2022-10-13T15:19:00.500Z,94921.88
2022-10-13T15:21:27.265Z,94915.00
2022-10-13T15:23:55.093Z,94928.84
2022-10-13T15:26:22.326Z,94925.97
2022-10-13T15:28:51.799Z,94910.63
2022-10-13T15:31:19.823Z,94899.47
2022-10-13T15:33:52.066Z,94915.78
2022-10-13T15:36:25.485Z,94905.25
2022-10-13T15:38:52.837Z,94909.41
2022-10-13T15:41:21.475Z,94917.41
2022-10-13T15:43:48.399Z,94914.94
2022-10-13T15:46:26.442Z,94909.81
2022-10-13T15:48:55.754Z,94902.16
2022-10-13T15:51:25.713Z,94893.31
2022-10-13T15:53:52.598Z,94887.03
2022-10-13T15:56:19.304Z,94901.31
2022-10-13T15:58:46.250Z,94882.50
2022-10-13T16:01:14.328Z,94881.69
2022-10-13T16:03:42.626Z,94891.75
2022-10-13T16:06:12.008Z,94888.91
2022-10-13T16:08:40.513Z,94896.84
2022-10-13T16:11:09.102Z,94915.22
2022-10-13T16:13:35.939Z,94901.91
2022-10-13T16:16:03.146Z,94898.53
2022-10-13T16:18:36.241Z,94905.31
2022-10-13T16:21:24.228Z,94895.06
2022-10-13T16:23:52.045Z,94901.00
2022-10-13T16:26:19.400Z,94914.38
2022-10-13T16:28:47.098Z,94911.25
2022-10-13T16:31:16.315Z,94903.56
2022-10-13T16:33:44.398Z,94915.41
2022-10-13T16:36:14.951Z,94914.47
2022-10-13T16:38:43.456Z,94910.75
2022-10-13T16:41:14.705Z,94897.72
2022-10-13T16:43:43.855Z,94905.00
2022-10-13T16:46:13.510Z,94900.53
2022-10-13T16:48:42.135Z,94903.09
2022-10-13T16:51:12.767Z,94908.13
2022-10-13T16:53:39.745Z,94913.22
2022-10-13T16:56:08.139Z,94924.44
2022-10-13T16:58:35.238Z,94923.41
2022-10-13T17:01:09.719Z,94919.03
2022-10-13T17:03:37.594Z,94888.16
2022-10-13T17:06:05.031Z,94909.41
2022-10-13T17:08:32.377Z,94907.91
2022-10-13T17:11:01.061Z,94927.13
2022-10-13T17:13:28.183Z,94910.94
2022-10-13T17:15:57.292Z,94920.53
2022-10-13T17:18:26.215Z,94916.75
2022-10-13T17:21:05.164Z,94909.81
2022-10-13T17:23:32.517Z,94912.44
2022-10-13T17:26:05.626Z,94907.06
2022-10-13T17:28:33.986Z,94911.16
2022-10-13T17:31:12.311Z,94920.03
2022-10-13T17:33:41.342Z,94919.19
2022-10-13T17:36:16.799Z,94922.91
2022-10-13T17:38:43.887Z,94926.81
2022-10-13T17:41:12.440Z,94939.16
2022-10-13T17:43:50.374Z,94938.06
2022-10-13T17:46:40.313Z,94939.56
2022-10-13T17:49:11.562Z,94942.22
2022-10-13T17:51:40.050Z,94944.38
2022-10-13T17:54:10.146Z,94938.66
2022-10-13T17:56:40.167Z,94915.00
2022-10-13T17:59:06.865Z,94896.75
2022-10-13T18:01:34.801Z,94927.97
2022-10-13T18:04:07.781Z,94925.34
2022-10-13T18:06:40.106Z,94943.66
2022-10-13T18:09:11.716Z,94931.31
2022-10-13T18:11:39.237Z,94919.41
2022-10-13T18:14:06.798Z,94928.38
2022-10-13T18:16:34.997Z,94932.53
2022-10-13T18:19:04.961Z,94928.50
2022-10-13T18:21:32.020Z,94934.34
2022-10-13T18:24:01.416Z,94934.78
2022-10-13T18:26:37.925Z,94921.16
2022-10-13T18:29:07.182Z,94913.28
2022-10-13T18:31:36.858Z,94921.41
2022-10-13T18:34:06.695Z,94932.44
2022-10-13T18:36:36.557Z,94905.25
2022-10-13T18:39:13.229Z,94901.72
2022-10-13T18:41:40.757Z,94910.22
2022-10-13T18:44:08.253Z,94890.03
2022-10-13T18:46:37.524Z,94893.56
2022-10-13T18:49:12.242Z,94906.38
2022-10-13T18:51:42.227Z,94896.19
2022-10-13T18:54:09.575Z,94889.25
2022-10-13T18:56:37.009Z,94891.97
2022-10-13T18:59:06.136Z,94875.84
2022-10-13T19:01:35.054Z,94884.13
2022-10-13T19:04:02.327Z,94869.59
2022-10-13T19:06:32.067Z,94884.56
2022-10-13T19:09:00.976Z,94875.59
2022-10-13T19:11:29.816Z,94881.06
2022-10-13T19:13:58.696Z,94884.97
2022-10-13T19:16:28.460Z,94883.75
2022-10-13T19:18:56.101Z,94878.59
2022-10-13T19:21:24.386Z,94884.16
2022-10-13T19:23:51.422Z,94884.50
2022-10-13T19:26:27.736Z,94880.69
2022-10-13T19:28:56.306Z,94890.81
2022-10-13T19:31:26.291Z,94891.97
2022-10-13T19:33:53.590Z,94874.63
2022-10-13T19:36:29.113Z,94879.25
2022-10-13T19:39:01.726Z,94881.69
2022-10-13T19:41:31.473Z,94875.34
2022-10-13T19:43:59.082Z,94890.78
2022-10-13T19:46:35.360Z,94875.34
2022-10-13T19:49:03.349Z,94885.72
2022-10-13T19:51:30.771Z,94895.44
2022-10-13T19:53:57.904Z,94904.84
2022-10-13T19:56:28.892Z,94881.75
2022-10-13T19:58:55.667Z,94889.22
2022-10-13T20:01:23.303Z,94891.16
2022-10-13T20:03:50.800Z,94890.41
2022-10-13T20:06:19.135Z,94893.16
2022-10-13T20:08:46.630Z,94897.75
2022-10-13T20:11:22.217Z,94888.91
2022-10-13T20:13:50.788Z,94890.81
2022-10-13T20:16:20.531Z,94904.09
2022-10-13T20:18:55.363Z,94901.75
2022-10-13T20:21:22.783Z,94894.72
2022-10-13T20:23:50.722Z,94896.13
2022-10-13T20:26:18.362Z,94896.09
2022-10-13T20:28:46.394Z,94898.59
2022-10-13T20:31:15.185Z,94894.53
2022-10-13T20:33:43.378Z,94897.63
2022-10-13T20:36:15.352Z,94889.06
2022-10-13T20:38:43.137Z,94894.13
2022-10-13T20:41:20.339Z,94852.53
2022-10-13T20:43:48.441Z,94853.38
2022-10-13T20:46:17.120Z,94870.00
2022-10-13T20:49:09.308Z,94884.81
2022-10-13T20:51:31.404Z,94858.53
2022-10-13T20:53:59.858Z,94875.03
2022-10-13T20:56:27.268Z,94871.84
2022-10-13T20:58:54.397Z,94859.75
2022-10-13T21:01:22.457Z,94840.19
2022-10-13T21:03:54.204Z,94854.59
2022-10-13T21:06:23.090Z,94834.56
2022-10-13T21:08:49.826Z,94835.50
2022-10-13T21:11:18.865Z,94862.94
2022-10-13T21:13:46.033Z,94833.44
2022-10-13T21:16:16.634Z,94844.09
2022-10-13T21:18:48.085Z,94832.38
2022-10-13T21:21:17.383Z,94849.88
2022-10-13T21:23:46.094Z,94856.75
2022-10-13T21:26:20.415Z,94860.59
2022-10-13T21:28:48.850Z,94871.31
2022-10-13T21:31:16.884Z,94876.34
2022-10-13T21:33:44.979Z,94888.88
2022-10-13T21:36:20.163Z,94853.13
2022-10-13T21:38:50.951Z,94850.25
2022-10-13T21:41:18.138Z,94854.09
2022-10-13T21:43:45.394Z,94876.75
2022-10-13T21:46:15.772Z,94894.69
2022-10-13T21:48:44.116Z,94885.28
2022-10-13T21:51:18.024Z,94881.81
2022-10-13T21:53:49.971Z,94873.69
2022-10-13T21:56:17.055Z,94888.44
2022-10-13T21:58:45.321Z,94900.03
2022-10-13T22:01:12.753Z,94903.22
2022-10-13T22:03:41.597Z,94895.88
2022-10-13T22:06:18.423Z,94891.19
2022-10-13T22:08:47.976Z,94918.06
2022-10-13T22:11:22.965Z,94914.94
2022-10-13T22:13:50.022Z,94902.91
2022-10-13T22:16:20.109Z,94904.88
2022-10-13T22:18:47.810Z,94911.50
2022-10-13T22:21:17.599Z,94919.69
2022-10-13T22:23:45.354Z,94923.59
2022-10-13T22:26:13.143Z,94923.22
2022-10-13T22:28:40.355Z,94926.72
2022-10-13T22:31:10.305Z,94897.25
2022-10-13T22:33:38.902Z,94919.72
2022-10-13T22:36:25.585Z,94882.88
2022-10-13T22:38:54.673Z,94880.03
2022-10-13T22:41:21.963Z,94875.50
2022-10-13T22:43:53.571Z,94826.34
2022-10-13T22:46:23.735Z,94835.03
2022-10-13T22:48:50.763Z,94879.63
2022-10-13T22:51:20.404Z,94868.69
2022-10-13T22:53:48.158Z,94879.63
2022-10-13T22:56:17.562Z,94853.75
2022-10-13T22:58:48.387Z,94813.59
2022-10-13T23:01:16.099Z,94839.50
2022-10-13T23:03:43.388Z,94839.97
2022-10-13T23:06:14.719Z,94846.84
2022-10-13T23:08:41.834Z,94843.59
2022-10-13T23:11:09.196Z,94858.63
2022-10-13T23:13:36.411Z,94861.59
2022-10-13T23:16:09.306Z,94871.84
2022-10-13T23:18:38.254Z,94863.88
2022-10-13T23:21:10.211Z,94891.00
2022-10-13T23:23:37.041Z,94849.44
2022-10-13T23:26:13.766Z,94879.16
2022-10-13T23:28:40.962Z,94848.94
2022-10-13T23:31:12.202Z,94866.44
2022-10-13T23:33:39.047Z,94880.81
2022-10-13T23:36:06.745Z,94897.72
2022-10-13T23:38:34.512Z,94861.88
2022-10-13T23:41:06.778Z,94881.63
2022-10-13T23:43:34.522Z,94900.13
2022-10-13T23:46:01.985Z,94914.06
2022-10-13T23:48:30.166Z,94921.16
2022-10-13T23:50:57.265Z,94899.66
2022-10-13T23:53:24.019Z,94887.72
2022-10-13T23:55:50.853Z,94930.13
2022-10-13T23:58:17.572Z,94928.09
